createdAt,value
2023-04-22T00:01:13.583Z,14.73
2023-04-22T00:03:42.282Z,14.83
2023-04-22T00:06:10.290Z,14.82
2023-04-22T00:08:37.735Z,14.70
2023-04-22T00:11:05.795Z,14.11
2023-04-22T00:13:33.292Z,14.35
2023-04-22T00:16:00.846Z,14.65
2023-04-22T00:18:28.625Z,14.72
2023-04-22T00:20:56.138Z,14.79
2023-04-22T00:23:23.528Z,15.02
2023-04-22T00:25:51.262Z,15.02
2023-04-22T00:28:18.692Z,14.92
2023-04-22T00:30:46.217Z,15.09
2023-04-22T00:33:14.018Z,15.12
2023-04-22T00:35:41.635Z,15.22
2023-04-22T00:38:09.046Z,15.27
2023-04-22T00:40:36.714Z,15.32
2023-04-22T00:43:04.363Z,15.29
2023-04-22T00:45:31.942Z,15.42
2023-04-22T00:48:00.029Z,15.38
2023-04-22T00:50:27.560Z,15.41
2023-04-22T00:52:55.921Z,15.13
2023-04-22T00:55:23.749Z,15.16
2023-04-22T00:57:52.197Z,15.11
2023-04-22T01:00:20.298Z,15.00
2023-04-22T01:02:48.232Z,15.02
2023-04-22T01:05:16.335Z,15.07
2023-04-22T01:07:43.853Z,15.00
2023-04-22T01:10:11.896Z,15.20
2023-04-22T01:12:39.294Z,15.14
2023-04-22T01:15:07.368Z,15.17
2023-04-22T01:17:35.608Z,15.31
2023-04-22T01:20:06.131Z,15.41
2023-04-22T01:22:37.393Z,14.96
2023-04-22T01:25:05.427Z,15.00
2023-04-22T01:27:32.845Z,15.00
2023-04-22T01:30:00.348Z,15.10
2023-04-22T01:32:30.613Z,15.09
2023-04-22T01:34:59.007Z,15.13
2023-04-22T01:37:26.652Z,15.04
2023-04-22T01:39:54.499Z,14.92
2023-04-22T01:42:22.105Z,14.85
2023-04-22T01:44:49.487Z,14.63
2023-04-22T01:47:17.466Z,14.23
2023-04-22T01:49:44.844Z,14.21
2023-04-22T01:52:13.211Z,14.28
2023-04-22T01:54:41.426Z,14.04
2023-04-22T01:57:14.226Z,14.18
2023-04-22T01:59:42.337Z,14.26
2023-04-22T02:02:10.023Z,14.55
2023-04-22T02:04:37.901Z,14.53
2023-04-22T02:07:05.809Z,14.44
2023-04-22T02:09:33.568Z,14.51
2023-04-22T02:12:01.573Z,14.34
2023-04-22T02:14:28.973Z,14.40
2023-04-22T02:16:56.430Z,14.62
2023-04-22T02:19:24.155Z,14.68
2023-04-22T02:21:51.523Z,14.35
2023-04-22T02:24:18.975Z,14.55
2023-04-22T02:26:47.358Z,14.62
2023-04-22T02:29:16.232Z,14.60
2023-04-22T02:31:43.610Z,14.61
2023-04-22T02:34:11.545Z,14.80
2023-04-22T02:36:38.983Z,14.91
2023-04-22T02:39:06.817Z,14.85
2023-04-22T02:41:35.535Z,14.82
2023-04-22T02:44:03.215Z,14.73
2023-04-22T02:46:30.841Z,14.53
2023-04-22T02:48:58.640Z,14.58
2023-04-22T02:51:26.753Z,14.53
2023-04-22T02:53:54.269Z,14.50
2023-04-22T02:56:21.972Z,14.42
2023-04-22T02:58:49.419Z,13.94
2023-04-22T03:01:16.883Z,14.15
2023-04-22T03:03:44.939Z,13.98
2023-04-22T03:06:13.171Z,14.04
2023-04-22T03:08:40.579Z,14.15
2023-04-22T03:11:08.354Z,14.23
2023-04-22T03:13:35.773Z,14.40
2023-04-22T03:16:03.177Z,14.50
2023-04-22T03:18:31.372Z,14.30
2023-04-22T03:20:58.938Z,14.22
2023-04-22T03:23:26.413Z,13.78
2023-04-22T03:25:54.117Z,14.30
2023-04-22T03:28:21.567Z,13.97
2023-04-22T03:30:49.827Z,14.13
2023-04-22T03:33:18.276Z,13.69
2023-04-22T03:35:49.292Z,14.10
2023-04-22T03:38:17.021Z,13.24
2023-04-22T03:40:44.919Z,13.63
2023-04-22T03:43:12.872Z,13.77
2023-04-22T03:45:40.769Z,13.68
2023-04-22T03:48:09.502Z,13.79
2023-04-22T03:50:37.310Z,13.91
2023-04-22T03:53:05.009Z,13.95
2023-04-22T03:55:32.750Z,13.99
2023-04-22T03:58:01.044Z,14.21
2023-04-22T04:00:28.761Z,14.30
2023-04-22T04:02:57.392Z,14.44
2023-04-22T04:05:25.663Z,14.52
2023-04-22T04:07:53.117Z,14.47
2023-04-22T04:10:20.972Z,14.51
2023-04-22T04:12:49.115Z,14.30
2023-04-22T04:15:18.926Z,14.18
2023-04-22T04:17:48.274Z,13.94
2023-04-22T04:20:16.202Z,14.06
2023-04-22T04:22:43.688Z,14.24
2023-04-22T04:25:11.772Z,14.32
2023-04-22T04:27:41.626Z,14.47
2023-04-22T04:30:10.955Z,14.53
2023-04-22T04:32:39.124Z,14.65
2023-04-22T04:35:07.409Z,14.66
2023-04-22T04:37:35.100Z,14.71
2023-04-22T04:40:03.000Z,14.65
2023-04-22T04:42:33.452Z,14.76
2023-04-22T04:45:01.167Z,14.68
2023-04-22T04:47:30.122Z,14.87
2023-04-22T04:50:04.278Z,14.93
2023-04-22T04:52:32.434Z,14.61
2023-04-22T04:54:59.858Z,14.93
2023-04-22T04:57:27.254Z,14.98
2023-04-22T04:59:55.753Z,14.94
2023-04-22T05:02:23.654Z,15.11
2023-04-22T05:04:51.521Z,15.11
2023-04-22T05:07:19.655Z,15.14
2023-04-22T05:09:47.754Z,15.29
2023-04-22T05:12:15.359Z,15.44
2023-04-22T05:14:43.408Z,15.79
2023-04-22T05:17:10.887Z,16.03
2023-04-22T05:19:38.444Z,16.32
2023-04-22T05:22:07.834Z,16.50
2023-04-22T05:24:35.336Z,16.99
2023-04-22T05:27:02.792Z,17.87
2023-04-22T05:29:31.681Z,19.20
2023-04-22T05:31:59.672Z,19.47
2023-04-22T05:34:27.403Z,19.33
2023-04-22T05:36:55.239Z,19.11
2023-04-22T05:39:23.105Z,19.28
2023-04-22T05:41:50.844Z,20.35
2023-04-22T05:44:18.598Z,21.18
2023-04-22T05:46:46.556Z,22.14
2023-04-22T05:49:14.181Z,21.90
2023-04-22T05:51:44.389Z,21.71
2023-04-22T05:54:12.811Z,21.65
2023-04-22T05:56:40.709Z,21.41
2023-04-22T05:59:08.551Z,21.14
2023-04-22T06:01:37.043Z,20.91
2023-04-22T06:04:06.724Z,20.80
2023-04-22T06:06:34.403Z,20.73
2023-04-22T06:09:02.006Z,20.75
2023-04-22T06:11:29.671Z,20.34
2023-04-22T06:13:57.081Z,20.53
2023-04-22T06:16:24.518Z,20.34
2023-04-22T06:18:52.188Z,20.31
2023-04-22T06:21:21.297Z,19.93
2023-04-22T06:23:48.732Z,19.63
2023-04-22T06:26:16.496Z,19.77
2023-04-22T06:28:43.961Z,19.89
2023-04-22T06:31:11.845Z,19.70
2023-04-22T06:33:40.115Z,19.25
2023-04-22T06:36:08.778Z,18.97
2023-04-22T06:38:36.397Z,19.03
2023-04-22T06:41:05.714Z,19.39
2023-04-22T06:43:33.491Z,19.34
2023-04-22T06:46:03.936Z,19.34
2023-04-22T06:48:33.990Z,19.34
2023-04-22T06:51:06.268Z,19.42
2023-04-22T06:53:34.014Z,19.45
2023-04-22T06:56:01.524Z,19.69
2023-04-22T06:58:28.928Z,19.41
2023-04-22T07:00:56.617Z,19.45
2023-04-22T07:03:24.326Z,19.14
2023-04-22T07:05:55.105Z,18.87
2023-04-22T07:08:22.837Z,19.42
2023-04-22T07:10:50.414Z,19.76
2023-04-22T07:13:19.205Z,19.78
2023-04-22T07:15:46.984Z,19.53
2023-04-22T07:18:14.698Z,19.75
2023-04-22T07:20:42.095Z,19.47
2023-04-22T07:23:09.776Z,19.53
2023-04-22T07:25:37.231Z,20.01
2023-04-22T07:28:04.628Z,19.47
2023-04-22T07:30:32.317Z,19.03
2023-04-22T07:32:59.758Z,19.99
2023-04-22T07:35:28.633Z,20.41
2023-04-22T07:37:56.395Z,20.28
2023-04-22T07:40:23.801Z,19.80
2023-04-22T07:42:51.235Z,19.96
2023-04-22T07:45:19.614Z,19.62
2023-04-22T07:47:47.026Z,19.68
2023-04-22T07:50:14.450Z,20.19
2023-04-22T07:52:42.130Z,20.37
2023-04-22T07:55:09.752Z,20.73
2023-04-22T07:57:39.056Z,20.62
2023-04-22T08:00:08.205Z,20.80
2023-04-22T08:02:39.522Z,20.62
2023-04-22T08:05:07.677Z,20.72
2023-04-22T08:07:35.192Z,20.81
2023-04-22T08:10:02.575Z,21.18
2023-04-22T08:12:30.633Z,20.83
2023-04-22T08:14:58.544Z,21.57
2023-04-22T08:17:26.652Z,21.38
2023-04-22T08:19:54.378Z,21.30
2023-04-22T08:22:21.869Z,21.56
2023-04-22T08:24:49.314Z,22.07
2023-04-22T08:27:17.085Z,21.33
2023-04-22T08:29:44.566Z,21.71
2023-04-22T08:32:11.990Z,22.03
2023-04-22T08:34:40.365Z,21.61
2023-04-22T08:37:08.582Z,21.56
2023-04-22T08:39:35.985Z,22.32
2023-04-22T08:42:04.092Z,22.14
2023-04-22T08:44:31.653Z,22.72
2023-04-22T08:47:02.674Z,22.32
2023-04-22T08:49:31.070Z,22.70
2023-04-22T08:51:58.742Z,22.43
2023-04-22T08:54:26.524Z,22.33
2023-04-22T08:56:54.510Z,22.51
2023-04-22T08:59:22.997Z,22.47
2023-04-22T09:01:54.073Z,22.46
2023-04-22T09:04:22.166Z,22.52
2023-04-22T09:06:49.652Z,22.72
2023-04-22T09:09:17.358Z,23.00
2023-04-22T09:11:45.011Z,23.35
2023-04-22T09:14:12.401Z,23.73
2023-04-22T09:16:47.196Z,22.83
2023-04-22T09:19:15.332Z,23.29
2023-04-22T09:21:42.959Z,22.98
2023-04-22T09:24:11.614Z,22.69
2023-04-22T09:26:41.347Z,23.28
2023-04-22T09:29:14.089Z,23.01
2023-04-22T09:31:42.031Z,23.97
2023-04-22T09:34:09.759Z,24.26
2023-04-22T09:36:40.702Z,23.69
2023-04-22T09:39:08.785Z,23.96
2023-04-22T09:41:40.552Z,24.31
2023-04-22T09:44:16.023Z,24.59
2023-04-22T09:46:44.248Z,23.07
2023-04-22T09:49:12.120Z,23.89
2023-04-22T09:51:42.704Z,23.57
2023-04-22T09:54:11.426Z,23.71
2023-04-22T09:56:50.300Z,23.92
2023-04-22T09:59:23.082Z,24.23
2023-04-22T10:01:53.899Z,24.39
2023-04-22T10:04:23.384Z,24.42
2023-04-22T10:06:51.872Z,24.81
2023-04-22T10:09:21.067Z,24.64
2023-04-22T10:11:54.167Z,24.33
2023-04-22T10:14:22.501Z,24.10
2023-04-22T10:16:56.893Z,24.63
2023-04-22T10:19:25.828Z,24.71
2023-04-22T10:21:58.173Z,25.39
2023-04-22T10:24:27.366Z,24.94
2023-04-22T10:26:57.625Z,24.99
2023-04-22T10:29:27.678Z,25.10
2023-04-22T10:31:58.316Z,25.65
2023-04-22T10:34:26.007Z,25.68
2023-04-22T10:36:59.460Z,25.62
2023-04-22T10:39:29.197Z,25.08
2023-04-22T10:42:11.612Z,24.39
2023-04-22T10:44:49.151Z,25.16
2023-04-22T10:47:38.234Z,25.07
2023-04-22T10:50:28.235Z,23.66
2023-04-22T10:52:57.268Z,24.24
2023-04-22T10:55:26.094Z,24.69
2023-04-22T10:57:54.011Z,24.87
2023-04-22T11:00:24.359Z,24.94
2023-04-22T11:02:54.276Z,24.66
2023-04-22T11:05:26.202Z,24.59
2023-04-22T11:07:56.157Z,24.74
2023-04-22T11:10:44.855Z,24.37
2023-04-22T11:13:15.566Z,24.23
2023-04-22T11:15:44.972Z,23.76
2023-04-22T11:18:23.741Z,24.06
2023-04-22T11:20:53.351Z,23.87
2023-04-22T11:23:28.414Z,23.71
2023-04-22T11:26:06.095Z,24.06
2023-04-22T11:28:33.857Z,24.00
2023-04-22T11:31:02.696Z,23.60
2023-04-22T11:33:30.283Z,23.60
2023-04-22T11:35:58.844Z,23.47
2023-04-22T11:38:26.316Z,23.74
2023-04-22T11:40:55.723Z,23.55
2023-04-22T11:43:23.367Z,23.90
2023-04-22T11:45:50.821Z,24.04
2023-04-22T11:48:18.298Z,24.00
2023-04-22T11:50:46.074Z,24.01
2023-04-22T11:53:18.414Z,24.35
2023-04-22T11:55:47.924Z,24.35
2023-04-22T11:58:16.724Z,24.31
2023-04-22T12:00:48.897Z,24.30
2023-04-22T12:03:17.697Z,23.54
2023-04-22T12:05:47.334Z,23.67
2023-04-22T12:08:23.468Z,24.05
2023-04-22T12:10:53.355Z,24.04
2023-04-22T12:13:26.342Z,24.25
2023-04-22T12:15:56.578Z,24.18
2023-04-22T12:18:37.438Z,24.28
2023-04-22T12:21:11.805Z,24.27
2023-04-22T12:23:46.711Z,24.26
2023-04-22T12:26:18.790Z,24.11
2023-04-22T12:28:46.542Z,23.02
2023-04-22T12:31:15.413Z,22.55
2023-04-22T12:33:43.020Z,23.59
2023-04-22T12:36:10.704Z,23.78
2023-04-22T12:38:39.176Z,23.91
2023-04-22T12:41:07.512Z,23.80
2023-04-22T12:43:36.948Z,23.62
2023-04-22T12:46:08.730Z,23.63
2023-04-22T12:48:39.841Z,23.31
2023-04-22T12:51:07.569Z,22.80
2023-04-22T12:53:35.037Z,23.26
2023-04-22T12:56:02.518Z,23.04
2023-04-22T12:58:30.266Z,23.42
2023-04-22T13:00:57.707Z,23.29
2023-04-22T13:03:25.231Z,23.15
2023-04-22T13:05:53.246Z,23.14
2023-04-22T13:08:21.237Z,22.89
2023-04-22T13:10:49.173Z,23.15
2023-04-22T13:13:19.039Z,23.61
2023-04-22T13:15:48.046Z,23.03
2023-04-22T13:18:16.915Z,22.85
2023-04-22T13:20:44.926Z,22.83
2023-04-22T13:23:13.330Z,23.60
2023-04-22T13:25:40.802Z,23.64
2023-04-22T13:28:08.566Z,23.27
2023-04-22T13:30:36.318Z,23.35
2023-04-22T13:33:03.752Z,23.26
2023-04-22T13:35:31.573Z,22.10
2023-04-22T13:37:59.013Z,22.39
2023-04-22T13:40:27.408Z,22.89
2023-04-22T13:42:55.594Z,23.69
2023-04-22T13:45:23.127Z,24.01
2023-04-22T13:47:50.826Z,23.32
2023-04-22T13:50:18.519Z,23.53
2023-04-22T13:52:46.093Z,22.60
2023-04-22T13:55:13.518Z,22.66
2023-04-22T13:57:41.179Z,22.76
2023-04-22T14:00:12.443Z,23.14
2023-04-22T14:02:40.417Z,23.68
2023-04-22T14:05:09.894Z,23.69
2023-04-22T14:07:37.825Z,23.99
2023-04-22T14:10:08.359Z,24.05
2023-04-22T14:12:35.790Z,24.14
2023-04-22T14:15:03.357Z,23.99
2023-04-22T14:17:31.493Z,24.22
2023-04-22T14:19:58.877Z,24.34
2023-04-22T14:22:26.264Z,24.19
2023-04-22T14:24:54.001Z,23.99
2023-04-22T14:27:21.393Z,23.92
2023-04-22T14:29:52.390Z,23.95
2023-04-22T14:32:20.633Z,23.77
2023-04-22T14:34:48.847Z,23.33
2023-04-22T14:37:16.212Z,22.84
2023-04-22T14:39:43.936Z,22.90
2023-04-22T14:42:11.334Z,23.20
2023-04-22T14:44:38.792Z,23.10
2023-04-22T14:47:06.466Z,23.67
2023-04-22T14:49:34.188Z,23.51
2023-04-22T14:52:01.601Z,23.36
2023-04-22T14:54:29.429Z,23.55
2023-04-22T14:56:56.815Z,22.79
2023-04-22T14:59:24.582Z,23.30
2023-04-22T15:01:52.265Z,23.11
2023-04-22T15:04:20.056Z,22.76
2023-04-22T15:06:47.595Z,22.97
2023-04-22T15:09:15.490Z,23.34
2023-04-22T15:11:42.925Z,23.04
2023-04-22T15:14:10.356Z,23.10
2023-04-22T15:16:38.153Z,23.86
2023-04-22T15:19:05.592Z,24.37
2023-04-22T15:21:33.250Z,23.74
2023-04-22T15:24:00.927Z,24.34
2023-04-22T15:26:28.379Z,23.96
2023-04-22T15:28:55.885Z,24.44
2023-04-22T15:31:23.568Z,23.75
2023-04-22T15:33:51.036Z,23.46
2023-04-22T15:36:21.066Z,23.91
2023-04-22T15:38:54.226Z,24.14
2023-04-22T15:41:21.675Z,24.22
2023-04-22T15:43:51.826Z,24.16
2023-04-22T15:46:20.089Z,24.64
2023-04-22T15:48:48.691Z,23.39
2023-04-22T15:51:17.475Z,23.17
2023-04-22T15:53:46.102Z,23.66
2023-04-22T15:56:13.960Z,24.08
2023-04-22T15:58:41.783Z,24.55
2023-04-22T16:01:18.796Z,24.29
2023-04-22T16:03:50.396Z,23.16
2023-04-22T16:06:18.455Z,22.61
2023-04-22T16:08:46.141Z,22.35
2023-04-22T16:11:15.317Z,22.77
2023-04-22T16:13:43.100Z,23.19
2023-04-22T16:16:11.319Z,23.39
2023-04-22T16:18:39.107Z,23.39
2023-04-22T16:21:06.660Z,22.64
2023-04-22T16:23:34.881Z,22.62
2023-04-22T16:26:04.557Z,22.38
2023-04-22T16:28:32.293Z,22.92
2023-04-22T16:31:00.310Z,22.39
2023-04-22T16:33:28.097Z,23.35
2023-04-22T16:35:55.506Z,23.49
2023-04-22T16:38:22.915Z,23.00
2023-04-22T16:40:54.056Z,22.93
2023-04-22T16:43:21.560Z,23.02
2023-04-22T16:45:48.992Z,22.70
2023-04-22T16:48:16.773Z,22.87
2023-04-22T16:50:44.285Z,23.16
2023-04-22T16:53:11.982Z,23.27
2023-04-22T16:55:39.730Z,23.40
2023-04-22T16:58:07.158Z,23.60
2023-04-22T17:00:34.629Z,23.70
2023-04-22T17:03:02.492Z,23.48
2023-04-22T17:05:30.311Z,23.11
2023-04-22T17:07:57.780Z,22.65
2023-04-22T17:10:25.603Z,22.07
2023-04-22T17:12:53.419Z,22.52
2023-04-22T17:15:21.254Z,22.73
2023-04-22T17:17:49.026Z,22.17
2023-04-22T17:20:16.828Z,22.07
2023-04-22T17:22:44.932Z,22.32
2023-04-22T17:25:12.630Z,22.25
2023-04-22T17:27:40.023Z,22.05
2023-04-22T17:30:07.967Z,21.99
2023-04-22T17:32:35.803Z,22.18
2023-04-22T17:35:03.426Z,22.42
2023-04-22T17:37:30.836Z,22.62
2023-04-22T17:39:58.515Z,22.73
2023-04-22T17:42:38.835Z,22.64
2023-04-22T17:45:11.280Z,22.40
2023-04-22T17:47:38.832Z,22.55
2023-04-22T17:50:06.919Z,22.54
2023-04-22T17:52:35.625Z,22.48
2023-04-22T17:55:03.225Z,22.38
2023-04-22T17:57:31.269Z,22.28
2023-04-22T17:59:59.007Z,22.22
2023-04-22T18:02:26.494Z,21.90
2023-04-22T18:04:54.257Z,21.53
2023-04-22T18:07:21.687Z,21.76
2023-04-22T18:09:49.692Z,21.88
2023-04-22T18:12:17.557Z,21.81
2023-04-22T18:14:45.187Z,21.47
2023-04-22T18:17:13.572Z,21.15
2023-04-22T18:19:41.764Z,21.36
2023-04-22T18:22:09.564Z,21.13
2023-04-22T18:24:37.017Z,20.94
2023-04-22T18:27:04.846Z,21.05
2023-04-22T18:29:32.400Z,21.16
2023-04-22T18:31:59.855Z,21.25
2023-04-22T18:34:29.102Z,21.26
2023-04-22T18:36:56.560Z,21.23
2023-04-22T18:39:23.939Z,21.16
2023-04-22T18:41:52.076Z,20.98
2023-04-22T18:44:20.089Z,20.99
2023-04-22T18:46:47.616Z,21.02
2023-04-22T18:49:15.382Z,21.00
2023-04-22T18:51:42.913Z,20.96
2023-04-22T18:54:10.402Z,20.88
2023-04-22T18:56:38.188Z,20.80
2023-04-22T18:59:06.250Z,20.69
2023-04-22T19:01:34.946Z,20.48
2023-04-22T19:04:02.928Z,20.47
2023-04-22T19:06:30.726Z,20.45
2023-04-22T19:08:58.232Z,20.31
2023-04-22T19:11:26.075Z,20.17
2023-04-22T19:13:53.788Z,20.06
2023-04-22T19:16:23.072Z,19.93
2023-04-22T19:18:52.108Z,19.76
2023-04-22T19:21:19.856Z,19.82
2023-04-22T19:23:47.353Z,19.75
2023-04-22T19:26:15.095Z,19.61
2023-04-22T19:28:47.123Z,19.66
2023-04-22T19:31:17.337Z,19.51
2023-04-22T19:33:44.878Z,19.44
2023-04-22T19:36:12.431Z,19.21
2023-04-22T19:38:40.215Z,18.88
2023-04-22T19:41:08.993Z,18.60
2023-04-22T19:43:37.381Z,18.83
2023-04-22T19:46:05.321Z,18.84
2023-04-22T19:48:33.327Z,18.64
2023-04-22T19:51:01.130Z,18.70
2023-04-22T19:53:30.800Z,18.62
2023-04-22T19:55:58.276Z,18.69
2023-04-22T19:58:28.236Z,18.51
2023-04-22T20:00:56.353Z,18.42
2023-04-22T20:03:25.172Z,18.35
2023-04-22T20:05:53.236Z,18.27
2023-04-22T20:08:26.904Z,18.06
2023-04-22T20:10:55.343Z,18.12
2023-04-22T20:13:22.893Z,17.94
2023-04-22T20:15:50.846Z,18.00
2023-04-22T20:18:18.812Z,17.80
2023-04-22T20:20:48.285Z,17.74
2023-04-22T20:23:17.926Z,17.67
2023-04-22T20:25:47.016Z,17.56
2023-04-22T20:28:14.764Z,17.43
2023-04-22T20:30:42.467Z,17.35
2023-04-22T20:33:12.744Z,17.30
2023-04-22T20:35:41.465Z,17.49
2023-04-22T20:38:09.767Z,17.15
2023-04-22T20:40:38.578Z,17.21
2023-04-22T20:43:06.003Z,17.20
2023-04-22T20:45:33.470Z,17.23
2023-04-22T20:48:01.472Z,17.21
2023-04-22T20:50:33.434Z,17.20
2023-04-22T20:53:02.266Z,17.16
2023-04-22T20:55:29.695Z,16.99
2023-04-22T20:57:57.205Z,17.04
2023-04-22T21:00:25.157Z,16.91
2023-04-22T21:02:52.970Z,16.94
2023-04-22T21:05:22.006Z,16.96
2023-04-22T21:07:52.294Z,16.98
2023-04-22T21:10:20.792Z,16.98
2023-04-22T21:12:48.531Z,16.81
2023-04-22T21:15:16.599Z,16.87
2023-04-22T21:17:51.724Z,16.69
2023-04-22T21:20:21.897Z,16.61
2023-04-22T21:22:49.402Z,16.62
2023-04-22T21:25:21.461Z,16.38
2023-04-22T21:27:49.430Z,16.24
2023-04-22T21:30:17.432Z,16.49
2023-04-22T21:32:44.925Z,16.45
2023-04-22T21:35:12.676Z,16.50
2023-04-22T21:37:40.152Z,16.54
2023-04-22T21:40:10.062Z,16.19
2023-04-22T21:42:37.770Z,16.44
2023-04-22T21:45:05.816Z,16.25
2023-04-22T21:47:33.407Z,16.57
2023-04-22T21:50:01.377Z,16.61
2023-04-22T21:52:29.012Z,16.62
2023-04-22T21:54:56.400Z,16.59
2023-04-22T21:57:24.198Z,16.18
2023-04-22T21:59:51.635Z,16.33
2023-04-22T22:02:19.441Z,15.98
2023-04-22T22:04:47.232Z,16.07
2023-04-22T22:07:17.520Z,16.07
2023-04-22T22:09:46.434Z,15.94
2023-04-22T22:12:15.568Z,16.10
2023-04-22T22:14:43.434Z,16.07
2023-04-22T22:17:10.895Z,16.06
2023-04-22T22:19:39.153Z,16.06
2023-04-22T22:22:06.854Z,16.04
2023-04-22T22:24:34.421Z,16.10
2023-04-22T22:27:02.195Z,15.91
2023-04-22T22:29:29.643Z,15.93
2023-04-22T22:31:57.207Z,15.93
2023-04-22T22:34:24.992Z,15.90
2023-04-22T22:36:52.406Z,15.99
2023-04-22T22:39:19.868Z,15.88
2023-04-22T22:41:47.632Z,15.85
2023-04-22T22:44:15.251Z,15.58
2023-04-22T22:46:42.825Z,15.40
2023-04-22T22:49:10.820Z,15.43
2023-04-22T22:51:38.479Z,15.26
2023-04-22T22:54:06.021Z,15.41
2023-04-22T22:56:33.734Z,15.17
2023-04-22T22:59:01.136Z,15.10
2023-04-22T23:01:28.600Z,15.12
2023-04-22T23:03:56.515Z,15.00
2023-04-22T23:06:24.174Z,14.85
2023-04-22T23:08:51.732Z,14.88
2023-04-22T23:11:19.392Z,14.84
2023-04-22T23:13:47.822Z,14.95
2023-04-22T23:16:15.603Z,14.82
2023-04-22T23:18:43.500Z,14.86
2023-04-22T23:21:12.092Z,14.64
2023-04-22T23:23:40.659Z,14.93
2023-04-22T23:26:08.986Z,14.97
2023-04-22T23:28:36.721Z,14.87
2023-04-22T23:31:06.886Z,14.52
2023-04-22T23:33:36.262Z,14.71
2023-04-22T23:36:06.238Z,14.75
2023-04-22T23:38:33.659Z,14.76
2023-04-22T23:41:01.302Z,14.61
2023-04-22T23:43:28.785Z,14.77
2023-04-22T23:45:56.206Z,14.76
2023-04-22T23:48:24.032Z,14.75
2023-04-22T23:50:51.636Z,14.30
2023-04-22T23:53:19.013Z,14.54
2023-04-22T23:55:47.139Z,14.63
2023-04-22T23:58:14.918Z,14.48
